sensor_id;sensor_type;location;lat;lon;timestamp;temperature;humidity
33564;DHT22;19894;48.452;11.494;2022-10-16T00:01:27;20.20;60.80
33564;DHT22;19894;48.452;11.494;2022-10-16T00:03:53;20.20;60.80
33564;DHT22;19894;48.452;11.494;2022-10-16T00:06:20;20.20;60.80
33564;DHT22;19894;48.452;11.494;2022-10-16T00:08:47;20.20;60.70
33564;DHT22;19894;48.452;11.494;2022-10-16T00:11:21;20.20;60.70
33564;DHT22;19894;48.452;11.494;2022-10-16T00:13:48;20.20;60.70
33564;DHT22;19894;48.452;11.494;2022-10-16T00:16:15;20.20;60.60
33564;DHT22;19894;48.452;11.494;2022-10-16T00:18:41;20.20;60.60
33564;DHT22;19894;48.452;11.494;2022-10-16T00:21:10;20.20;60.60
33564;DHT22;19894;48.452;11.494;2022-10-16T00:23:36;20.20;60.60
33564;DHT22;19894;48.452;11.494;2022-10-16T00:26:04;20.10;60.60
33564;DHT22;19894;48.452;11.494;2022-10-16T00:28:31;20.10;60.50
33564;DHT22;19894;48.452;11.494;2022-10-16T00:30:57;20.10;60.50
33564;DHT22;19894;48.452;11.494;2022-10-16T00:33:23;20.10;60.50
33564;DHT22;19894;48.452;11.494;2022-10-16T00:35:49;20.10;60.40
33564;DHT22;19894;48.452;11.494;2022-10-16T00:38:15;20.10;60.40
33564;DHT22;19894;48.452;11.494;2022-10-16T00:40:41;20.10;60.30
33564;DHT22;19894;48.452;11.494;2022-10-16T00:43:37;20.10;60.20
33564;DHT22;19894;48.452;11.494;2022-10-16T00:46:27;20.10;60.20
33564;DHT22;19894;48.452;11.494;2022-10-16T00:48:53;20.10;60.20
33564;DHT22;19894;48.452;11.494;2022-10-16T00:51:23;20.10;60.30
33564;DHT22;19894;48.452;11.494;2022-10-16T00:53:50;20.10;60.20
33564;DHT22;19894;48.452;11.494;2022-10-16T00:56:17;20.20;60.30
33564;DHT22;19894;48.452;11.494;2022-10-16T00:58:42;20.20;60.30
33564;DHT22;19894;48.452;11.494;2022-10-16T01:01:08;20.20;60.30
33564;DHT22;19894;48.452;11.494;2022-10-16T01:03:36;20.10;60.30
33564;DHT22;19894;48.452;11.494;2022-10-16T01:09:06;20.20;60.30
33564;DHT22;19894;48.452;11.494;2022-10-16T01:14:27;20.20;60.20
33564;DHT22;19894;48.452;11.494;2022-10-16T01:17:05;20.10;60.10
33564;DHT22;19894;48.452;11.494;2022-10-16T01:22:39;20.20;60.10
33564;DHT22;19894;48.452;11.494;2022-10-16T01:25:11;20.10;60.10
33564;DHT22;19894;48.452;11.494;2022-10-16T01:27:39;20.10;60.10
33564;DHT22;19894;48.452;11.494;2022-10-16T01:30:25;20.10;60.20
33564;DHT22;19894;48.452;11.494;2022-10-16T01:33:01;20.10;60.10
33564;DHT22;19894;48.452;11.494;2022-10-16T01:35:43;20.10;60.10
33564;DHT22;19894;48.452;11.494;2022-10-16T01:38:19;20.10;60.10
33564;DHT22;19894;48.452;11.494;2022-10-16T01:40:49;20.10;60.10
33564;DHT22;19894;48.452;11.494;2022-10-16T01:43:20;20.10;60.10
33564;DHT22;19894;48.452;11.494;2022-10-16T01:45:47;20.10;60.10
33564;DHT22;19894;48.452;11.494;2022-10-16T01:48:17;20.10;60.00
33564;DHT22;19894;48.452;11.494;2022-10-16T01:50:44;20.10;60.00
33564;DHT22;19894;48.452;11.494;2022-10-16T01:53:15;20.10;60.00
33564;DHT22;19894;48.452;11.494;2022-10-16T01:55:45;20.10;60.00
33564;DHT22;19894;48.452;11.494;2022-10-16T01:58:13;20.10;60.00
33564;DHT22;19894;48.452;11.494;2022-10-16T02:00:42;20.10;60.00
33564;DHT22;19894;48.452;11.494;2022-10-16T02:03:11;20.20;60.00
33564;DHT22;19894;48.452;11.494;2022-10-16T02:05:41;20.10;59.90
33564;DHT22;19894;48.452;11.494;2022-10-16T02:08:08;20.10;59.90
33564;DHT22;19894;48.452;11.494;2022-10-16T02:10:35;20.20;60.00
33564;DHT22;19894;48.452;11.494;2022-10-16T02:13:15;20.10;59.80
33564;DHT22;19894;48.452;11.494;2022-10-16T02:15:42;20.20;59.90
33564;DHT22;19894;48.452;11.494;2022-10-16T02:18:09;20.20;59.90
33564;DHT22;19894;48.452;11.494;2022-10-16T02:20:59;20.10;59.80
33564;DHT22;19894;48.452;11.494;2022-10-16T02:25:56;20.20;59.90
33564;DHT22;19894;48.452;11.494;2022-10-16T02:28:28;20.20;60.00
33564;DHT22;19894;48.452;11.494;2022-10-16T02:31:02;20.20;60.00
33564;DHT22;19894;48.452;11.494;2022-10-16T02:33:29;20.20;60.00
33564;DHT22;19894;48.452;11.494;2022-10-16T02:35:56;20.10;60.00
33564;DHT22;19894;48.452;11.494;2022-10-16T02:38:23;20.10;60.00
33564;DHT22;19894;48.452;11.494;2022-10-16T02:40:49;20.10;59.90
33564;DHT22;19894;48.452;11.494;2022-10-16T02:43:15;20.10;59.90
33564;DHT22;19894;48.452;11.494;2022-10-16T02:45:41;20.10;59.90
33564;DHT22;19894;48.452;11.494;2022-10-16T02:48:06;20.10;59.90
33564;DHT22;19894;48.452;11.494;2022-10-16T02:50:32;20.10;59.90
33564;DHT22;19894;48.452;11.494;2022-10-16T02:52:58;20.10;59.90
33564;DHT22;19894;48.452;11.494;2022-10-16T02:55:24;20.10;59.80
33564;DHT22;19894;48.452;11.494;2022-10-16T02:57:49;20.10;59.80
33564;DHT22;19894;48.452;11.494;2022-10-16T03:00:16;20.10;59.80
33564;DHT22;19894;48.452;11.494;2022-10-16T03:02:42;20.10;59.70
33564;DHT22;19894;48.452;11.494;2022-10-16T03:05:09;20.10;59.60
33564;DHT22;19894;48.452;11.494;2022-10-16T03:07:35;20.10;59.50
33564;DHT22;19894;48.452;11.494;2022-10-16T03:10:00;20.20;59.60
33564;DHT22;19894;48.452;11.494;2022-10-16T03:12:29;20.20;59.60
33564;DHT22;19894;48.452;11.494;2022-10-16T03:14:58;20.10;59.40
33564;DHT22;19894;48.452;11.494;2022-10-16T03:17:24;20.20;59.50
33564;DHT22;19894;48.452;11.494;2022-10-16T03:19:50;20.10;59.40
33564;DHT22;19894;48.452;11.494;2022-10-16T03:22:15;20.10;59.40
33564;DHT22;19894;48.452;11.494;2022-10-16T03:24:41;20.20;59.40
33564;DHT22;19894;48.452;11.494;2022-10-16T03:27:07;20.10;59.40
33564;DHT22;19894;48.452;11.494;2022-10-16T03:29:32;20.10;59.40
33564;DHT22;19894;48.452;11.494;2022-10-16T03:31:58;20.10;59.50
33564;DHT22;19894;48.452;11.494;2022-10-16T03:34:24;20.10;59.40
33564;DHT22;19894;48.452;11.494;2022-10-16T03:36:51;20.10;59.50
33564;DHT22;19894;48.452;11.494;2022-10-16T03:39:16;20.10;59.50
33564;DHT22;19894;48.452;11.494;2022-10-16T03:41:42;20.10;59.50
33564;DHT22;19894;48.452;11.494;2022-10-16T03:44:08;20.10;59.50
33564;DHT22;19894;48.452;11.494;2022-10-16T03:46:33;20.10;59.50
33564;DHT22;19894;48.452;11.494;2022-10-16T03:48:59;20.10;59.50
33564;DHT22;19894;48.452;11.494;2022-10-16T03:51:24;20.10;59.50
33564;DHT22;19894;48.452;11.494;2022-10-16T03:53:50;20.10;59.50
33564;DHT22;19894;48.452;11.494;2022-10-16T03:56:15;20.10;59.50
33564;DHT22;19894;48.452;11.494;2022-10-16T03:58:41;20.10;59.60
33564;DHT22;19894;48.452;11.494;2022-10-16T04:01:07;20.10;59.60
33564;DHT22;19894;48.452;11.494;2022-10-16T04:03:32;20.10;59.60
33564;DHT22;19894;48.452;11.494;2022-10-16T04:05:58;20.10;59.60
33564;DHT22;19894;48.452;11.494;2022-10-16T04:08:24;20.10;59.70
33564;DHT22;19894;48.452;11.494;2022-10-16T04:10:49;20.10;59.70
33564;DHT22;19894;48.452;11.494;2022-10-16T04:13:16;20.10;59.70
33564;DHT22;19894;48.452;11.494;2022-10-16T04:15:41;20.10;59.70
33564;DHT22;19894;48.452;11.494;2022-10-16T04:18:07;20.10;59.70
33564;DHT22;19894;48.452;11.494;2022-10-16T04:20:33;20.10;59.70
33564;DHT22;19894;48.452;11.494;2022-10-16T04:22:59;20.10;59.70
33564;DHT22;19894;48.452;11.494;2022-10-16T04:25:24;20.20;59.80
33564;DHT22;19894;48.452;11.494;2022-10-16T04:27:52;20.10;59.80
33564;DHT22;19894;48.452;11.494;2022-10-16T04:30:17;20.10;59.80
33564;DHT22;19894;48.452;11.494;2022-10-16T04:32:43;20.20;59.80
33564;DHT22;19894;48.452;11.494;2022-10-16T04:35:08;20.20;59.80
33564;DHT22;19894;48.452;11.494;2022-10-16T04:37:34;20.10;59.70
33564;DHT22;19894;48.452;11.494;2022-10-16T04:40:00;20.20;59.80
33564;DHT22;19894;48.452;11.494;2022-10-16T04:42:25;20.20;59.80
33564;DHT22;19894;48.452;11.494;2022-10-16T04:44:51;20.10;59.70
33564;DHT22;19894;48.452;11.494;2022-10-16T04:47:16;20.10;59.80
33564;DHT22;19894;48.452;11.494;2022-10-16T04:49:42;20.10;59.70
33564;DHT22;19894;48.452;11.494;2022-10-16T04:52:07;20.20;59.80
33564;DHT22;19894;48.452;11.494;2022-10-16T04:54:34;20.10;59.70
33564;DHT22;19894;48.452;11.494;2022-10-16T04:57:00;20.10;59.80
33564;DHT22;19894;48.452;11.494;2022-10-16T04:59:25;20.10;59.70
33564;DHT22;19894;48.452;11.494;2022-10-16T05:01:51;20.10;59.80
33564;DHT22;19894;48.452;11.494;2022-10-16T05:04:17;20.10;59.70
33564;DHT22;19894;48.452;11.494;2022-10-16T05:06:43;20.10;59.80
33564;DHT22;19894;48.452;11.494;2022-10-16T05:09:09;20.10;59.80
33564;DHT22;19894;48.452;11.494;2022-10-16T05:11:35;20.10;59.80
33564;DHT22;19894;48.452;11.494;2022-10-16T05:14:00;20.10;59.90
33564;DHT22;19894;48.452;11.494;2022-10-16T05:16:26;20.10;59.90
33564;DHT22;19894;48.452;11.494;2022-10-16T05:18:52;20.10;60.00
33564;DHT22;19894;48.452;11.494;2022-10-16T05:21:18;20.10;60.00
33564;DHT22;19894;48.452;11.494;2022-10-16T05:23:43;20.10;60.00
33564;DHT22;19894;48.452;11.494;2022-10-16T05:26:09;20.20;60.00
33564;DHT22;19894;48.452;11.494;2022-10-16T05:28:34;20.20;60.00
33564;DHT22;19894;48.452;11.494;2022-10-16T05:31:07;20.20;60.00
33564;DHT22;19894;48.452;11.494;2022-10-16T05:33:33;20.20;60.00
33564;DHT22;19894;48.452;11.494;2022-10-16T05:36:08;20.20;59.90
33564;DHT22;19894;48.452;11.494;2022-10-16T05:38:35;20.20;59.90
33564;DHT22;19894;48.452;11.494;2022-10-16T05:41:02;20.20;59.80
33564;DHT22;19894;48.452;11.494;2022-10-16T05:43:28;20.10;59.80
33564;DHT22;19894;48.452;11.494;2022-10-16T05:45:55;20.10;59.80
33564;DHT22;19894;48.452;11.494;2022-10-16T05:48:21;20.20;59.80
33564;DHT22;19894;48.452;11.494;2022-10-16T05:50:47;20.10;59.80
33564;DHT22;19894;48.452;11.494;2022-10-16T05:53:13;20.10;59.70
33564;DHT22;19894;48.452;11.494;2022-10-16T05:55:38;20.10;59.70
33564;DHT22;19894;48.452;11.494;2022-10-16T05:58:04;20.10;59.80
33564;DHT22;19894;48.452;11.494;2022-10-16T06:00:30;20.10;59.70
33564;DHT22;19894;48.452;11.494;2022-10-16T06:02:55;20.10;59.70
33564;DHT22;19894;48.452;11.494;2022-10-16T06:05:21;20.10;59.70
33564;DHT22;19894;48.452;11.494;2022-10-16T06:07:46;20.10;59.70
33564;DHT22;19894;48.452;11.494;2022-10-16T06:10:12;20.10;59.60
33564;DHT22;19894;48.452;11.494;2022-10-16T06:12:37;20.10;60.20
33564;DHT22;19894;48.452;11.494;2022-10-16T06:15:03;20.10;59.60
33564;DHT22;19894;48.452;11.494;2022-10-16T06:17:29;20.10;59.60
33564;DHT22;19894;48.452;11.494;2022-10-16T06:19:54;20.10;59.50
33564;DHT22;19894;48.452;11.494;2022-10-16T06:22:20;20.10;59.50
33564;DHT22;19894;48.452;11.494;2022-10-16T06:24:46;20.10;59.50
33564;DHT22;19894;48.452;11.494;2022-10-16T06:27:12;20.10;59.60
33564;DHT22;19894;48.452;11.494;2022-10-16T06:29:38;20.10;59.50
33564;DHT22;19894;48.452;11.494;2022-10-16T06:32:04;20.10;59.50
33564;DHT22;19894;48.452;11.494;2022-10-16T06:34:29;20.20;59.50
33564;DHT22;19894;48.452;11.494;2022-10-16T06:36:55;20.10;59.50
33564;DHT22;19894;48.452;11.494;2022-10-16T06:39:20;20.20;59.50
33564;DHT22;19894;48.452;11.494;2022-10-16T06:41:46;20.20;59.50
33564;DHT22;19894;48.452;11.494;2022-10-16T06:44:11;20.20;59.40
33564;DHT22;19894;48.452;11.494;2022-10-16T06:46:37;20.20;59.40
33564;DHT22;19894;48.452;11.494;2022-10-16T06:49:03;20.20;59.40
33564;DHT22;19894;48.452;11.494;2022-10-16T06:51:28;20.20;59.40
33564;DHT22;19894;48.452;11.494;2022-10-16T06:53:55;20.20;59.40
33564;DHT22;19894;48.452;11.494;2022-10-16T06:56:26;20.20;59.50
33564;DHT22;19894;48.452;11.494;2022-10-16T06:58:52;20.20;59.50
33564;DHT22;19894;48.452;11.494;2022-10-16T07:01:20;20.20;59.50
33564;DHT22;19894;48.452;11.494;2022-10-16T07:03:46;20.10;59.40
33564;DHT22;19894;48.452;11.494;2022-10-16T07:06:17;20.10;59.50
33564;DHT22;19894;48.452;11.494;2022-10-16T07:08:44;20.10;59.50
33564;DHT22;19894;48.452;11.494;2022-10-16T07:11:13;20.10;59.40
33564;DHT22;19894;48.452;11.494;2022-10-16T07:13:40;20.10;59.40
33564;DHT22;19894;48.452;11.494;2022-10-16T07:16:15;20.10;59.40
33564;DHT22;19894;48.452;11.494;2022-10-16T07:18:41;20.10;59.40
33564;DHT22;19894;48.452;11.494;2022-10-16T07:21:11;20.10;59.40
33564;DHT22;19894;48.452;11.494;2022-10-16T07:23:37;20.10;59.40
33564;DHT22;19894;48.452;11.494;2022-10-16T07:26:03;20.10;59.40
33564;DHT22;19894;48.452;11.494;2022-10-16T07:28:30;20.10;59.50
33564;DHT22;19894;48.452;11.494;2022-10-16T07:31:00;20.10;59.50
33564;DHT22;19894;48.452;11.494;2022-10-16T07:33:26;20.10;59.50
33564;DHT22;19894;48.452;11.494;2022-10-16T07:35:53;20.10;59.50
33564;DHT22;19894;48.452;11.494;2022-10-16T07:38:18;20.10;59.50
33564;DHT22;19894;48.452;11.494;2022-10-16T07:40:44;20.10;59.60
33564;DHT22;19894;48.452;11.494;2022-10-16T07:43:10;20.20;59.60
33564;DHT22;19894;48.452;11.494;2022-10-16T07:45:36;20.10;59.60
33564;DHT22;19894;48.452;11.494;2022-10-16T07:48:02;20.20;59.70
33564;DHT22;19894;48.452;11.494;2022-10-16T07:50:27;20.20;59.70
33564;DHT22;19894;48.452;11.494;2022-10-16T07:52:53;20.10;59.70
33564;DHT22;19894;48.452;11.494;2022-10-16T07:55:18;20.20;59.70
33564;DHT22;19894;48.452;11.494;2022-10-16T07:57:44;20.20;59.70
33564;DHT22;19894;48.452;11.494;2022-10-16T08:00:10;20.10;59.70
33564;DHT22;19894;48.452;11.494;2022-10-16T08:02:42;20.10;59.80
33564;DHT22;19894;48.452;11.494;2022-10-16T08:05:08;20.20;59.80
33564;DHT22;19894;48.452;11.494;2022-10-16T08:07:33;20.10;59.80
33564;DHT22;19894;48.452;11.494;2022-10-16T08:09:59;20.10;59.90
33564;DHT22;19894;48.452;11.494;2022-10-16T08:12:27;20.10;59.80
33564;DHT22;19894;48.452;11.494;2022-10-16T08:14:52;20.10;59.80
33564;DHT22;19894;48.452;11.494;2022-10-16T08:17:18;20.10;59.90
33564;DHT22;19894;48.452;11.494;2022-10-16T08:19:47;20.10;59.90
33564;DHT22;19894;48.452;11.494;2022-10-16T08:22:14;20.10;60.00
33564;DHT22;19894;48.452;11.494;2022-10-16T08:24:40;20.10;60.00
33564;DHT22;19894;48.452;11.494;2022-10-16T08:27:07;20.10;60.20
33564;DHT22;19894;48.452;11.494;2022-10-16T08:29:34;20.10;60.20
33564;DHT22;19894;48.452;11.494;2022-10-16T08:31:59;20.10;60.40
33564;DHT22;19894;48.452;11.494;2022-10-16T08:34:25;20.10;60.40
33564;DHT22;19894;48.452;11.494;2022-10-16T08:36:53;20.10;60.50
33564;DHT22;19894;48.452;11.494;2022-10-16T08:39:20;20.10;60.60
33564;DHT22;19894;48.452;11.494;2022-10-16T08:44:40;20.20;60.80
33564;DHT22;19894;48.452;11.494;2022-10-16T08:47:17;20.10;60.80
33564;DHT22;19894;48.452;11.494;2022-10-16T08:49:55;20.20;60.90
33564;DHT22;19894;48.452;11.494;2022-10-16T08:52:22;20.20;60.90
33564;DHT22;19894;48.452;11.494;2022-10-16T08:54:51;20.20;61.00
33564;DHT22;19894;48.452;11.494;2022-10-16T08:57:19;20.20;61.00
33564;DHT22;19894;48.452;11.494;2022-10-16T08:59:45;20.20;61.00
33564;DHT22;19894;48.452;11.494;2022-10-16T09:07:44;20.10;60.90
33564;DHT22;19894;48.452;11.494;2022-10-16T09:10:23;20.10;61.00
33564;DHT22;19894;48.452;11.494;2022-10-16T09:13:02;20.20;61.00
33564;DHT22;19894;48.452;11.494;2022-10-16T09:18:23;20.10;61.10
33564;DHT22;19894;48.452;11.494;2022-10-16T09:21:02;20.10;61.30
33564;DHT22;19894;48.452;11.494;2022-10-16T09:23:34;20.10;61.20
33564;DHT22;19894;48.452;11.494;2022-10-16T09:26:01;20.10;61.20
33564;DHT22;19894;48.452;11.494;2022-10-16T09:28:27;20.10;61.30
33564;DHT22;19894;48.452;11.494;2022-10-16T09:30:53;20.10;61.40
33564;DHT22;19894;48.452;11.494;2022-10-16T09:33:23;20.10;61.50
33564;DHT22;19894;48.452;11.494;2022-10-16T09:35:52;20.10;61.60
33564;DHT22;19894;48.452;11.494;2022-10-16T09:38:48;20.10;61.70
33564;DHT22;19894;48.452;11.494;2022-10-16T09:41:19;20.10;61.90
33564;DHT22;19894;48.452;11.494;2022-10-16T09:43:49;20.10;61.80
33564;DHT22;19894;48.452;11.494;2022-10-16T09:46:34;20.10;61.90
33564;DHT22;19894;48.452;11.494;2022-10-16T09:49:16;20.20;62.10
33564;DHT22;19894;48.452;11.494;2022-10-16T09:51:44;20.20;62.30
33564;DHT22;19894;48.452;11.494;2022-10-16T09:54:19;20.20;62.20
33564;DHT22;19894;48.452;11.494;2022-10-16T09:56:45;20.20;62.30
33564;DHT22;19894;48.452;11.494;2022-10-16T09:59:16;20.20;62.30
33564;DHT22;19894;48.452;11.494;2022-10-16T10:01:49;20.20;62.40
33564;DHT22;19894;48.452;11.494;2022-10-16T10:04:20;20.20;62.50
33564;DHT22;19894;48.452;11.494;2022-10-16T10:06:49;20.20;62.40
33564;DHT22;19894;48.452;11.494;2022-10-16T10:09:27;20.20;62.30
33564;DHT22;19894;48.452;11.494;2022-10-16T10:11:55;20.20;62.30
33564;DHT22;19894;48.452;11.494;2022-10-16T10:14:25;20.20;62.40
33564;DHT22;19894;48.452;11.494;2022-10-16T10:17:01;20.20;62.50
33564;DHT22;19894;48.452;11.494;2022-10-16T10:19:27;20.20;62.60
33564;DHT22;19894;48.452;11.494;2022-10-16T10:21:53;20.20;62.50
33564;DHT22;19894;48.452;11.494;2022-10-16T10:24:19;20.20;63.00
33564;DHT22;19894;48.452;11.494;2022-10-16T10:26:54;20.20;62.40
33564;DHT22;19894;48.452;11.494;2022-10-16T10:29:44;20.20;62.50
33564;DHT22;19894;48.452;11.494;2022-10-16T10:40:56;20.10;63.10
33564;DHT22;19894;48.452;11.494;2022-10-16T10:46:23;20.20;63.10
33564;DHT22;19894;48.452;11.494;2022-10-16T10:54:41;20.20;63.70
33564;DHT22;19894;48.452;11.494;2022-10-16T11:05:33;20.20;63.20
33564;DHT22;19894;48.452;11.494;2022-10-16T11:08:09;20.20;63.50
33564;DHT22;19894;48.452;11.494;2022-10-16T11:13:34;20.20;63.60
33564;DHT22;19894;48.452;11.494;2022-10-16T11:16:10;20.20;63.30
33564;DHT22;19894;48.452;11.494;2022-10-16T11:18:42;20.20;63.40
33564;DHT22;19894;48.452;11.494;2022-10-16T11:21:13;20.20;63.30
33564;DHT22;19894;48.452;11.494;2022-10-16T11:23:44;20.20;63.30
33564;DHT22;19894;48.452;11.494;2022-10-16T11:26:24;20.20;63.30
33564;DHT22;19894;48.452;11.494;2022-10-16T11:28:54;20.20;63.30
33564;DHT22;19894;48.452;11.494;2022-10-16T11:34:06;20.20;63.20
33564;DHT22;19894;48.452;11.494;2022-10-16T11:37:29;20.20;63.10
33564;DHT22;19894;48.452;11.494;2022-10-16T11:39:30;20.20;63.00
33564;DHT22;19894;48.452;11.494;2022-10-16T11:44:51;20.20;62.80
33564;DHT22;19894;48.452;11.494;2022-10-16T11:53:12;20.20;62.30
33564;DHT22;19894;48.452;11.494;2022-10-16T11:55:41;20.20;62.50
33564;DHT22;19894;48.452;11.494;2022-10-16T11:58:17;20.20;62.40
33564;DHT22;19894;48.452;11.494;2022-10-16T12:03:40;20.20;62.30
33564;DHT22;19894;48.452;11.494;2022-10-16T12:08:46;20.20;62.20
33564;DHT22;19894;48.452;11.494;2022-10-16T12:11:32;20.20;62.10
33564;DHT22;19894;48.452;11.494;2022-10-16T12:16:38;20.20;62.00
33564;DHT22;19894;48.452;11.494;2022-10-16T12:19:12;20.20;61.90
33564;DHT22;19894;48.452;11.494;2022-10-16T12:21:38;20.20;61.70
33564;DHT22;19894;48.452;11.494;2022-10-16T12:24:05;20.20;61.70
33564;DHT22;19894;48.452;11.494;2022-10-16T12:26:38;20.20;61.60
33564;DHT22;19894;48.452;11.494;2022-10-16T12:29:30;20.20;61.60
33564;DHT22;19894;48.452;11.494;2022-10-16T12:31:57;20.20;61.50
33564;DHT22;19894;48.452;11.494;2022-10-16T12:34:29;20.20;61.40
33564;DHT22;19894;48.452;11.494;2022-10-16T12:37:09;20.20;61.40
33564;DHT22;19894;48.452;11.494;2022-10-16T12:39:35;20.20;61.40
33564;DHT22;19894;48.452;11.494;2022-10-16T12:44:53;20.20;61.40
33564;DHT22;19894;48.452;11.494;2022-10-16T12:47:47;20.20;61.40
33564;DHT22;19894;48.452;11.494;2022-10-16T12:50:30;20.20;61.50
33564;DHT22;19894;48.452;11.494;2022-10-16T12:52:57;20.20;61.50
33564;DHT22;19894;48.452;11.494;2022-10-16T12:55:23;20.20;61.50
33564;DHT22;19894;48.452;11.494;2022-10-16T12:58:09;20.20;61.50
33564;DHT22;19894;48.452;11.494;2022-10-16T13:00:45;20.20;61.60
33564;DHT22;19894;48.452;11.494;2022-10-16T13:05:55;20.20;61.50
33564;DHT22;19894;48.452;11.494;2022-10-16T13:11:06;20.20;61.60
33564;DHT22;19894;48.452;11.494;2022-10-16T13:16:25;20.20;61.60
33564;DHT22;19894;48.452;11.494;2022-10-16T13:29:31;20.20;61.50
33564;DHT22;19894;48.452;11.494;2022-10-16T13:31:58;20.20;62.00
33564;DHT22;19894;48.452;11.494;2022-10-16T13:34:25;20.20;61.50
33564;DHT22;19894;48.452;11.494;2022-10-16T13:36:53;20.20;61.40
33564;DHT22;19894;48.452;11.494;2022-10-16T13:39:24;20.20;61.50
33564;DHT22;19894;48.452;11.494;2022-10-16T13:42:05;20.20;61.60
33564;DHT22;19894;48.452;11.494;2022-10-16T13:44:37;20.20;61.50
33564;DHT22;19894;48.452;11.494;2022-10-16T13:47:04;20.20;61.50
33564;DHT22;19894;48.452;11.494;2022-10-16T13:49:30;20.20;61.60
33564;DHT22;19894;48.452;11.494;2022-10-16T13:51:59;20.20;61.50
33564;DHT22;19894;48.452;11.494;2022-10-16T13:54:26;20.20;62.00
33564;DHT22;19894;48.452;11.494;2022-10-16T13:56:54;20.20;61.40
33564;DHT22;19894;48.452;11.494;2022-10-16T14:01:49;20.20;61.40
33564;DHT22;19894;48.452;11.494;2022-10-16T14:04:15;20.20;61.40
33564;DHT22;19894;48.452;11.494;2022-10-16T14:06:43;20.20;61.40
33564;DHT22;19894;48.452;11.494;2022-10-16T14:11:48;20.20;61.50
33564;DHT22;19894;48.452;11.494;2022-10-16T14:14:17;20.20;61.60
33564;DHT22;19894;48.452;11.494;2022-10-16T14:16:43;20.20;61.60
33564;DHT22;19894;48.452;11.494;2022-10-16T14:19:20;20.20;61.70
33564;DHT22;19894;48.452;11.494;2022-10-16T14:21:48;20.20;61.80
33564;DHT22;19894;48.452;11.494;2022-10-16T14:24:26;20.20;61.80
33564;DHT22;19894;48.452;11.494;2022-10-16T14:26:56;20.20;61.90
33564;DHT22;19894;48.452;11.494;2022-10-16T14:29:24;20.20;62.00
33564;DHT22;19894;48.452;11.494;2022-10-16T14:32:01;20.20;62.00
33564;DHT22;19894;48.452;11.494;2022-10-16T14:34:33;20.20;62.00
33564;DHT22;19894;48.452;11.494;2022-10-16T14:37:01;20.30;62.00
33564;DHT22;19894;48.452;11.494;2022-10-16T14:39:32;20.30;62.00
33564;DHT22;19894;48.452;11.494;2022-10-16T14:41:58;20.20;61.90
33564;DHT22;19894;48.452;11.494;2022-10-16T14:44:29;20.20;61.80
33564;DHT22;19894;48.452;11.494;2022-10-16T14:46:56;20.20;62.00
33564;DHT22;19894;48.452;11.494;2022-10-16T14:49:23;20.20;62.00
33564;DHT22;19894;48.452;11.494;2022-10-16T14:51:49;20.20;62.10
33564;DHT22;19894;48.452;11.494;2022-10-16T14:54:17;20.20;62.30
33564;DHT22;19894;48.452;11.494;2022-10-16T14:56:54;20.20;62.30
33564;DHT22;19894;48.452;11.494;2022-10-16T14:59:40;20.20;62.20
33564;DHT22;19894;48.452;11.494;2022-10-16T15:04:54;20.20;62.40
33564;DHT22;19894;48.452;11.494;2022-10-16T15:07:19;20.20;62.40
33564;DHT22;19894;48.452;11.494;2022-10-16T15:09:45;20.20;62.40
33564;DHT22;19894;48.452;11.494;2022-10-16T15:12:10;20.20;62.50
33564;DHT22;19894;48.452;11.494;2022-10-16T15:14:37;20.20;62.90
33564;DHT22;19894;48.452;11.494;2022-10-16T15:17:03;20.20;63.10
33564;DHT22;19894;48.452;11.494;2022-10-16T15:19:28;20.20;63.30
33564;DHT22;19894;48.452;11.494;2022-10-16T15:21:54;20.20;63.40
33564;DHT22;19894;48.452;11.494;2022-10-16T15:24:20;20.20;63.40
33564;DHT22;19894;48.452;11.494;2022-10-16T15:26:45;20.20;63.60
33564;DHT22;19894;48.452;11.494;2022-10-16T15:29:12;20.20;63.70
33564;DHT22;19894;48.452;11.494;2022-10-16T15:31:37;20.20;63.80
33564;DHT22;19894;48.452;11.494;2022-10-16T15:34:03;20.20;63.90
33564;DHT22;19894;48.452;11.494;2022-10-16T15:36:36;20.20;63.90
33564;DHT22;19894;48.452;11.494;2022-10-16T15:39:13;20.20;63.90
33564;DHT22;19894;48.452;11.494;2022-10-16T15:41:39;20.20;64.20
33564;DHT22;19894;48.452;11.494;2022-10-16T15:44:05;20.30;64.20
33564;DHT22;19894;48.452;11.494;2022-10-16T15:46:31;20.20;64.00
33564;DHT22;19894;48.452;11.494;2022-10-16T15:48:59;20.30;64.10
33564;DHT22;19894;48.452;11.494;2022-10-16T15:51:25;20.20;64.00
33564;DHT22;19894;48.452;11.494;2022-10-16T15:53:54;20.20;64.10
33564;DHT22;19894;48.452;11.494;2022-10-16T15:56:19;20.20;64.20
33564;DHT22;19894;48.452;11.494;2022-10-16T15:58:47;20.20;64.20
33564;DHT22;19894;48.452;11.494;2022-10-16T16:01:13;20.30;64.30
33564;DHT22;19894;48.452;11.494;2022-10-16T16:03:38;20.30;64.20
33564;DHT22;19894;48.452;11.494;2022-10-16T16:06:10;20.20;64.10
33564;DHT22;19894;48.452;11.494;2022-10-16T16:08:36;20.20;64.20
33564;DHT22;19894;48.452;11.494;2022-10-16T16:11:10;20.20;64.40
33564;DHT22;19894;48.452;11.494;2022-10-16T16:13:36;20.20;64.40
33564;DHT22;19894;48.452;11.494;2022-10-16T16:16:10;20.20;64.60
33564;DHT22;19894;48.452;11.494;2022-10-16T16:18:36;20.30;64.60
33564;DHT22;19894;48.452;11.494;2022-10-16T16:21:03;20.20;65.30
33564;DHT22;19894;48.452;11.494;2022-10-16T16:23:29;20.20;64.90
33564;DHT22;19894;48.452;11.494;2022-10-16T16:26:13;20.30;64.90
33564;DHT22;19894;48.452;11.494;2022-10-16T16:28:40;20.30;64.90
33564;DHT22;19894;48.452;11.494;2022-10-16T16:31:06;20.30;64.80
33564;DHT22;19894;48.452;11.494;2022-10-16T16:33:31;20.30;64.90
33564;DHT22;19894;48.452;11.494;2022-10-16T16:36:02;20.30;64.90
33564;DHT22;19894;48.452;11.494;2022-10-16T16:38:29;20.30;64.90
33564;DHT22;19894;48.452;11.494;2022-10-16T16:40:55;20.20;64.70
33564;DHT22;19894;48.452;11.494;2022-10-16T16:43:25;20.20;64.70
33564;DHT22;19894;48.452;11.494;2022-10-16T16:45:51;20.30;64.70
33564;DHT22;19894;48.452;11.494;2022-10-16T16:48:16;20.30;64.70
33564;DHT22;19894;48.452;11.494;2022-10-16T16:50:42;20.30;64.50
33564;DHT22;19894;48.452;11.494;2022-10-16T16:53:07;20.30;65.00
33564;DHT22;19894;48.452;11.494;2022-10-16T16:55:33;20.30;64.40
33564;DHT22;19894;48.452;11.494;2022-10-16T16:57:59;20.30;64.40
33564;DHT22;19894;48.452;11.494;2022-10-16T17:00:25;20.20;64.20
33564;DHT22;19894;48.452;11.494;2022-10-16T17:02:51;20.30;64.30
33564;DHT22;19894;48.452;11.494;2022-10-16T17:05:17;20.20;64.30